sensor_id;sensor_type;location;lat;lon;timestamp;temperature;humidity
582;DHT22;277;50.074;8.436;2023-07-24T00:02:03;21.10;99.90
582;DHT22;277;50.074;8.436;2023-07-24T00:04:32;21.00;99.90
582;DHT22;277;50.074;8.436;2023-07-24T00:07:00;21.00;99.90
582;DHT22;277;50.074;8.436;2023-07-24T00:09:28;21.00;99.90
582;DHT22;277;50.074;8.436;2023-07-24T00:11:56;21.00;99.90
582;DHT22;277;50.074;8.436;2023-07-24T00:14:24;20.90;99.90
582;DHT22;277;50.074;8.436;2023-07-24T00:16:52;20.90;99.90
582;DHT22;277;50.074;8.436;2023-07-24T00:19:19;20.90;99.90
582;DHT22;277;50.074;8.436;2023-07-24T00:21:49;20.90;99.90
582;DHT22;277;50.074;8.436;2023-07-24T00:24:16;21.00;99.90
582;DHT22;277;50.074;8.436;2023-07-24T00:26:44;21.00;99.90
582;DHT22;277;50.074;8.436;2023-07-24T00:29:12;20.90;99.90
582;DHT22;277;50.074;8.436;2023-07-24T00:31:40;20.90;99.90
582;DHT22;277;50.074;8.436;2023-07-24T00:34:07;20.90;99.90
582;DHT22;277;50.074;8.436;2023-07-24T00:36:35;20.90;99.90
582;DHT22;277;50.074;8.436;2023-07-24T00:39:04;20.90;99.90
582;DHT22;277;50.074;8.436;2023-07-24T00:41:32;20.90;99.90
582;DHT22;277;50.074;8.436;2023-07-24T00:44:00;20.90;99.90
582;DHT22;277;50.074;8.436;2023-07-24T00:46:28;20.90;99.90
582;DHT22;277;50.074;8.436;2023-07-24T00:48:59;20.90;99.90
582;DHT22;277;50.074;8.436;2023-07-24T00:51:27;20.90;99.90
582;DHT22;277;50.074;8.436;2023-07-24T00:53:55;20.90;99.90
582;DHT22;277;50.074;8.436;2023-07-24T00:56:25;20.90;99.90
582;DHT22;277;50.074;8.436;2023-07-24T00:58:54;20.90;99.90
582;DHT22;277;50.074;8.436;2023-07-24T01:01:22;20.90;99.90
582;DHT22;277;50.074;8.436;2023-07-24T01:03:51;20.90;99.90
582;DHT22;277;50.074;8.436;2023-07-24T01:06:19;20.90;99.90
582;DHT22;277;50.074;8.436;2023-07-24T01:08:47;20.90;99.90
582;DHT22;277;50.074;8.436;2023-07-24T01:11:19;20.90;99.90
582;DHT22;277;50.074;8.436;2023-07-24T01:13:56;20.90;99.90
582;DHT22;277;50.074;8.436;2023-07-24T01:16:27;20.90;99.90
582;DHT22;277;50.074;8.436;2023-07-24T01:18:59;20.90;99.90
582;DHT22;277;50.074;8.436;2023-07-24T01:21:33;20.90;99.90
582;DHT22;277;50.074;8.436;2023-07-24T01:24:14;20.90;99.90
582;DHT22;277;50.074;8.436;2023-07-24T01:26:47;20.90;99.90
582;DHT22;277;50.074;8.436;2023-07-24T01:29:15;20.80;99.90
582;DHT22;277;50.074;8.436;2023-07-24T01:31:43;20.90;99.90
582;DHT22;277;50.074;8.436;2023-07-24T01:34:11;20.90;99.90
582;DHT22;277;50.074;8.436;2023-07-24T01:36:39;20.90;99.90
582;DHT22;277;50.074;8.436;2023-07-24T01:39:07;20.90;99.90
582;DHT22;277;50.074;8.436;2023-07-24T01:41:36;20.90;99.90
582;DHT22;277;50.074;8.436;2023-07-24T01:44:06;20.80;99.90
582;DHT22;277;50.074;8.436;2023-07-24T01:46:34;20.90;99.90
582;DHT22;277;50.074;8.436;2023-07-24T01:49:02;21.00;99.90
582;DHT22;277;50.074;8.436;2023-07-24T01:51:30;20.90;99.90
582;DHT22;277;50.074;8.436;2023-07-24T01:53:58;20.90;99.90
582;DHT22;277;50.074;8.436;2023-07-24T01:56:26;20.90;99.90
582;DHT22;277;50.074;8.436;2023-07-24T01:58:55;20.90;99.90
582;DHT22;277;50.074;8.436;2023-07-24T02:01:24;20.80;99.90
582;DHT22;277;50.074;8.436;2023-07-24T02:03:52;21.00;99.90
582;DHT22;277;50.074;8.436;2023-07-24T02:06:20;21.00;99.90
582;DHT22;277;50.074;8.436;2023-07-24T02:08:48;20.90;99.90
582;DHT22;277;50.074;8.436;2023-07-24T02:11:18;20.90;99.90
582;DHT22;277;50.074;8.436;2023-07-24T02:13:46;21.00;99.90
582;DHT22;277;50.074;8.436;2023-07-24T02:16:14;21.00;99.90
582;DHT22;277;50.074;8.436;2023-07-24T02:18:44;20.90;99.90
582;DHT22;277;50.074;8.436;2023-07-24T02:21:11;20.80;99.90
582;DHT22;277;50.074;8.436;2023-07-24T02:23:39;20.80;99.90
582;DHT22;277;50.074;8.436;2023-07-24T02:26:07;20.70;99.90
582;DHT22;277;50.074;8.436;2023-07-24T02:28:35;20.80;99.90
582;DHT22;277;50.074;8.436;2023-07-24T02:31:03;20.80;99.90
582;DHT22;277;50.074;8.436;2023-07-24T02:33:31;20.70;99.90
582;DHT22;277;50.074;8.436;2023-07-24T02:36:00;20.70;99.90
582;DHT22;277;50.074;8.436;2023-07-24T02:38:28;20.60;99.90
582;DHT22;277;50.074;8.436;2023-07-24T02:40:57;20.50;99.90
582;DHT22;277;50.074;8.436;2023-07-24T02:43:25;20.50;99.90
582;DHT22;277;50.074;8.436;2023-07-24T02:45:53;20.50;99.90
582;DHT22;277;50.074;8.436;2023-07-24T02:48:21;20.50;99.90
582;DHT22;277;50.074;8.436;2023-07-24T02:50:48;20.40;99.90
582;DHT22;277;50.074;8.436;2023-07-24T02:53:18;20.40;99.90
582;DHT22;277;50.074;8.436;2023-07-24T02:55:46;20.40;99.90
582;DHT22;277;50.074;8.436;2023-07-24T02:58:14;20.40;99.90
582;DHT22;277;50.074;8.436;2023-07-24T03:00:53;20.30;99.90
582;DHT22;277;50.074;8.436;2023-07-24T03:03:21;20.30;99.90
582;DHT22;277;50.074;8.436;2023-07-24T03:05:49;20.20;99.90
582;DHT22;277;50.074;8.436;2023-07-24T03:08:19;20.20;99.90
582;DHT22;277;50.074;8.436;2023-07-24T03:10:46;20.10;99.90
582;DHT22;277;50.074;8.436;2023-07-24T03:13:14;20.20;99.90
582;DHT22;277;50.074;8.436;2023-07-24T03:15:42;20.10;99.90
582;DHT22;277;50.074;8.436;2023-07-24T03:18:10;20.10;99.90
582;DHT22;277;50.074;8.436;2023-07-24T03:20:38;20.10;99.90
582;DHT22;277;50.074;8.436;2023-07-24T03:23:06;20.10;99.90
582;DHT22;277;50.074;8.436;2023-07-24T03:25:35;20.10;99.90
582;DHT22;277;50.074;8.436;2023-07-24T03:28:03;20.00;99.90
582;DHT22;277;50.074;8.436;2023-07-24T03:30:31;20.00;99.90
582;DHT22;277;50.074;8.436;2023-07-24T03:33:00;19.90;99.90
582;DHT22;277;50.074;8.436;2023-07-24T03:35:29;19.90;99.90
582;DHT22;277;50.074;8.436;2023-07-24T03:37:57;19.90;99.90
582;DHT22;277;50.074;8.436;2023-07-24T03:40:24;19.90;99.90
582;DHT22;277;50.074;8.436;2023-07-24T03:42:54;19.90;99.90
582;DHT22;277;50.074;8.436;2023-07-24T03:45:22;19.70;99.90
582;DHT22;277;50.074;8.436;2023-07-24T03:47:50;19.70;99.90
582;DHT22;277;50.074;8.436;2023-07-24T03:50:18;19.50;99.90
582;DHT22;277;50.074;8.436;2023-07-24T03:52:46;19.60;99.90
582;DHT22;277;50.074;8.436;2023-07-24T03:55:14;19.60;99.90
582;DHT22;277;50.074;8.436;2023-07-24T03:57:42;19.50;99.90
582;DHT22;277;50.074;8.436;2023-07-24T04:00:12;19.50;99.90
582;DHT22;277;50.074;8.436;2023-07-24T04:02:40;19.50;99.90
582;DHT22;277;50.074;8.436;2023-07-24T04:05:08;19.40;99.90
582;DHT22;277;50.074;8.436;2023-07-24T04:07:36;19.40;99.90
582;DHT22;277;50.074;8.436;2023-07-24T04:10:06;19.40;99.90
582;DHT22;277;50.074;8.436;2023-07-24T04:12:34;19.40;99.90
582;DHT22;277;50.074;8.436;2023-07-24T04:15:02;19.50;99.90
582;DHT22;277;50.074;8.436;2023-07-24T04:17:31;19.40;99.90
582;DHT22;277;50.074;8.436;2023-07-24T04:20:00;19.40;99.90
582;DHT22;277;50.074;8.436;2023-07-24T04:22:27;19.40;99.90
582;DHT22;277;50.074;8.436;2023-07-24T04:24:55;19.40;99.90
582;DHT22;277;50.074;8.436;2023-07-24T04:27:23;19.40;99.90
582;DHT22;277;50.074;8.436;2023-07-24T04:29:51;19.40;99.90
582;DHT22;277;50.074;8.436;2023-07-24T04:32:19;19.40;99.90
582;DHT22;277;50.074;8.436;2023-07-24T04:34:53;19.50;99.90
582;DHT22;277;50.074;8.436;2023-07-24T04:37:21;19.40;99.90
582;DHT22;277;50.074;8.436;2023-07-24T04:39:49;19.50;99.90
582;DHT22;277;50.074;8.436;2023-07-24T04:42:16;19.50;99.90
582;DHT22;277;50.074;8.436;2023-07-24T04:44:44;19.50;99.90
582;DHT22;277;50.074;8.436;2023-07-24T04:47:12;19.60;99.90
582;DHT22;277;50.074;8.436;2023-07-24T04:49:40;19.60;99.90
582;DHT22;277;50.074;8.436;2023-07-24T04:52:09;19.60;99.90
582;DHT22;277;50.074;8.436;2023-07-24T04:54:37;19.70;99.90
582;DHT22;277;50.074;8.436;2023-07-24T04:57:05;19.80;99.90
582;DHT22;277;50.074;8.436;2023-07-24T04:59:33;19.80;99.90
582;DHT22;277;50.074;8.436;2023-07-24T05:02:01;19.70;99.90
582;DHT22;277;50.074;8.436;2023-07-24T05:04:29;19.90;99.90
582;DHT22;277;50.074;8.436;2023-07-24T05:06:57;19.80;99.90
582;DHT22;277;50.074;8.436;2023-07-24T05:09:27;19.90;99.90
582;DHT22;277;50.074;8.436;2023-07-24T05:11:55;19.90;99.90
582;DHT22;277;50.074;8.436;2023-07-24T05:14:23;19.90;99.90
582;DHT22;277;50.074;8.436;2023-07-24T05:16:51;19.90;99.90
582;DHT22;277;50.074;8.436;2023-07-24T05:19:19;20.00;99.90
582;DHT22;277;50.074;8.436;2023-07-24T05:21:47;20.00;99.90
582;DHT22;277;50.074;8.436;2023-07-24T05:24:15;19.90;99.90
582;DHT22;277;50.074;8.436;2023-07-24T05:26:44;20.00;99.90
582;DHT22;277;50.074;8.436;2023-07-24T05:29:12;19.90;99.90
582;DHT22;277;50.074;8.436;2023-07-24T05:31:40;19.90;99.90
582;DHT22;277;50.074;8.436;2023-07-24T05:34:09;20.00;99.90
582;DHT22;277;50.074;8.436;2023-07-24T05:36:37;20.00;99.90
582;DHT22;277;50.074;8.436;2023-07-24T05:39:05;20.00;99.90
582;DHT22;277;50.074;8.436;2023-07-24T05:41:33;20.10;99.90
582;DHT22;277;50.074;8.436;2023-07-24T05:44:02;20.20;99.90
582;DHT22;277;50.074;8.436;2023-07-24T05:46:30;20.20;99.90
582;DHT22;277;50.074;8.436;2023-07-24T05:48:59;20.30;99.90
582;DHT22;277;50.074;8.436;2023-07-24T05:51:28;20.40;99.90
582;DHT22;277;50.074;8.436;2023-07-24T05:53:56;20.50;99.90
582;DHT22;277;50.074;8.436;2023-07-24T05:56:24;20.60;99.90
582;DHT22;277;50.074;8.436;2023-07-24T05:58:51;20.60;99.90
582;DHT22;277;50.074;8.436;2023-07-24T06:01:21;20.60;99.90
582;DHT22;277;50.074;8.436;2023-07-24T06:03:49;20.70;99.90
582;DHT22;277;50.074;8.436;2023-07-24T06:06:17;20.70;99.90
582;DHT22;277;50.074;8.436;2023-07-24T06:08:46;20.70;99.90
582;DHT22;277;50.074;8.436;2023-07-24T06:11:14;20.70;99.90
582;DHT22;277;50.074;8.436;2023-07-24T06:13:42;20.70;99.90
582;DHT22;277;50.074;8.436;2023-07-24T06:16:10;20.70;99.90
582;DHT22;277;50.074;8.436;2023-07-24T06:18:42;20.80;99.90
582;DHT22;277;50.074;8.436;2023-07-24T06:21:11;20.80;99.90
582;DHT22;277;50.074;8.436;2023-07-24T06:23:39;20.80;99.90
582;DHT22;277;50.074;8.436;2023-07-24T06:26:07;20.80;99.90
582;DHT22;277;50.074;8.436;2023-07-24T06:28:35;20.90;99.90
582;DHT22;277;50.074;8.436;2023-07-24T06:31:03;20.90;99.90
582;DHT22;277;50.074;8.436;2023-07-24T06:33:31;20.90;99.90
582;DHT22;277;50.074;8.436;2023-07-24T06:36:00;21.10;99.90
582;DHT22;277;50.074;8.436;2023-07-24T06:38:28;21.20;99.90
582;DHT22;277;50.074;8.436;2023-07-24T06:40:56;21.20;99.90
582;DHT22;277;50.074;8.436;2023-07-24T06:43:24;21.30;99.90
582;DHT22;277;50.074;8.436;2023-07-24T06:45:51;21.40;99.90
582;DHT22;277;50.074;8.436;2023-07-24T06:48:19;21.40;99.90
582;DHT22;277;50.074;8.436;2023-07-24T06:50:47;21.50;99.90
582;DHT22;277;50.074;8.436;2023-07-24T06:53:17;21.40;99.90
582;DHT22;277;50.074;8.436;2023-07-24T06:55:45;21.50;99.90
582;DHT22;277;50.074;8.436;2023-07-24T06:58:13;21.60;99.90
582;DHT22;277;50.074;8.436;2023-07-24T07:00:40;21.80;99.90
582;DHT22;277;50.074;8.436;2023-07-24T07:03:08;22.00;99.90
582;DHT22;277;50.074;8.436;2023-07-24T07:05:36;22.10;99.90
582;DHT22;277;50.074;8.436;2023-07-24T07:08:04;22.20;99.90
582;DHT22;277;50.074;8.436;2023-07-24T07:10:33;22.30;99.90
582;DHT22;277;50.074;8.436;2023-07-24T07:13:01;22.40;99.90
582;DHT22;277;50.074;8.436;2023-07-24T07:15:29;22.40;99.90
582;DHT22;277;50.074;8.436;2023-07-24T07:17:57;22.50;99.90
582;DHT22;277;50.074;8.436;2023-07-24T07:20:25;22.60;99.90
582;DHT22;277;50.074;8.436;2023-07-24T07:22:53;22.70;99.90
582;DHT22;277;50.074;8.436;2023-07-24T07:25:21;22.70;99.90
582;DHT22;277;50.074;8.436;2023-07-24T07:27:50;22.80;99.90
582;DHT22;277;50.074;8.436;2023-07-24T07:30:18;22.80;99.90
582;DHT22;277;50.074;8.436;2023-07-24T07:32:46;22.90;99.90
582;DHT22;277;50.074;8.436;2023-07-24T07:35:15;22.80;99.90
582;DHT22;277;50.074;8.436;2023-07-24T07:37:43;22.70;99.90
582;DHT22;277;50.074;8.436;2023-07-24T07:40:11;22.70;99.90
582;DHT22;277;50.074;8.436;2023-07-24T07:42:39;22.70;99.90
582;DHT22;277;50.074;8.436;2023-07-24T07:45:11;22.70;99.90
582;DHT22;277;50.074;8.436;2023-07-24T07:47:39;22.80;99.90
582;DHT22;277;50.074;8.436;2023-07-24T07:50:08;22.90;99.90
582;DHT22;277;50.074;8.436;2023-07-24T07:52:36;23.00;99.90
582;DHT22;277;50.074;8.436;2023-07-24T07:55:04;23.10;99.90
582;DHT22;277;50.074;8.436;2023-07-24T07:57:34;23.10;99.90
582;DHT22;277;50.074;8.436;2023-07-24T08:00:02;23.00;99.90
582;DHT22;277;50.074;8.436;2023-07-24T08:02:32;23.00;99.90
582;DHT22;277;50.074;8.436;2023-07-24T08:05:00;23.00;99.90
582;DHT22;277;50.074;8.436;2023-07-24T08:07:43;23.00;99.90
582;DHT22;277;50.074;8.436;2023-07-24T08:10:11;23.00;99.90
582;DHT22;277;50.074;8.436;2023-07-24T08:12:42;22.90;99.90
582;DHT22;277;50.074;8.436;2023-07-24T08:15:10;23.00;99.90
582;DHT22;277;50.074;8.436;2023-07-24T08:17:39;23.10;99.90
582;DHT22;277;50.074;8.436;2023-07-24T08:20:08;23.10;99.90
582;DHT22;277;50.074;8.436;2023-07-24T08:22:36;23.00;99.90
582;DHT22;277;50.074;8.436;2023-07-24T08:25:05;23.00;99.90
582;DHT22;277;50.074;8.436;2023-07-24T08:27:34;23.10;99.90
582;DHT22;277;50.074;8.436;2023-07-24T08:30:20;23.20;99.90
582;DHT22;277;50.074;8.436;2023-07-24T08:32:50;23.20;99.90
582;DHT22;277;50.074;8.436;2023-07-24T08:35:18;23.30;99.90
582;DHT22;277;50.074;8.436;2023-07-24T08:37:45;23.50;99.90
582;DHT22;277;50.074;8.436;2023-07-24T08:40:15;23.60;99.90
582;DHT22;277;50.074;8.436;2023-07-24T08:42:43;23.70;99.90
582;DHT22;277;50.074;8.436;2023-07-24T08:45:12;23.80;99.90
582;DHT22;277;50.074;8.436;2023-07-24T08:47:42;23.80;99.90
582;DHT22;277;50.074;8.436;2023-07-24T08:50:12;24.00;99.90
582;DHT22;277;50.074;8.436;2023-07-24T08:52:42;24.20;99.90
582;DHT22;277;50.074;8.436;2023-07-24T08:55:11;24.30;99.90
582;DHT22;277;50.074;8.436;2023-07-24T08:57:39;24.40;99.90
582;DHT22;277;50.074;8.436;2023-07-24T09:00:08;24.60;99.90
582;DHT22;277;50.074;8.436;2023-07-24T09:02:36;24.90;99.90
582;DHT22;277;50.074;8.436;2023-07-24T09:05:05;25.00;99.90
582;DHT22;277;50.074;8.436;2023-07-24T09:07:34;25.00;99.90
582;DHT22;277;50.074;8.436;2023-07-24T09:10:03;25.00;99.90
582;DHT22;277;50.074;8.436;2023-07-24T09:12:31;24.90;99.90
582;DHT22;277;50.074;8.436;2023-07-24T09:15:02;25.00;99.90
582;DHT22;277;50.074;8.436;2023-07-24T09:17:32;25.10;99.90
582;DHT22;277;50.074;8.436;2023-07-24T09:20:01;25.10;99.90
582;DHT22;277;50.074;8.436;2023-07-24T09:22:30;25.20;99.90
582;DHT22;277;50.074;8.436;2023-07-24T09:25:01;25.40;99.90
582;DHT22;277;50.074;8.436;2023-07-24T09:27:32;25.20;99.90
582;DHT22;277;50.074;8.436;2023-07-24T09:30:01;25.10;99.90
582;DHT22;277;50.074;8.436;2023-07-24T09:32:29;24.90;99.90
582;DHT22;277;50.074;8.436;2023-07-24T09:34:58;24.70;99.90
582;DHT22;277;50.074;8.436;2023-07-24T09:37:27;24.70;99.90
582;DHT22;277;50.074;8.436;2023-07-24T09:39:56;24.60;99.90
582;DHT22;277;50.074;8.436;2023-07-24T09:42:32;24.70;99.90
582;DHT22;277;50.074;8.436;2023-07-24T09:45:00;24.90;99.90
582;DHT22;277;50.074;8.436;2023-07-24T09:47:28;25.20;99.90
582;DHT22;277;50.074;8.436;2023-07-24T09:50:16;25.70;99.90
582;DHT22;277;50.074;8.436;2023-07-24T09:52:45;25.80;99.90
582;DHT22;277;50.074;8.436;2023-07-24T09:55:21;25.80;99.90
582;DHT22;277;50.074;8.436;2023-07-24T09:57:53;25.70;99.90
582;DHT22;277;50.074;8.436;2023-07-24T10:00:22;25.60;99.90
582;DHT22;277;50.074;8.436;2023-07-24T10:02:50;25.70;99.90
582;DHT22;277;50.074;8.436;2023-07-24T10:05:18;25.90;99.90
582;DHT22;277;50.074;8.436;2023-07-24T10:07:47;26.00;99.90
582;DHT22;277;50.074;8.436;2023-07-24T10:10:15;26.00;99.90
582;DHT22;277;50.074;8.436;2023-07-24T10:12:43;25.90;99.90
582;DHT22;277;50.074;8.436;2023-07-24T10:15:14;25.50;99.90
582;DHT22;277;50.074;8.436;2023-07-24T10:17:42;25.30;99.90
582;DHT22;277;50.074;8.436;2023-07-24T10:20:11;25.10;99.90
582;DHT22;277;50.074;8.436;2023-07-24T10:22:41;25.10;99.90
582;DHT22;277;50.074;8.436;2023-07-24T10:25:10;25.30;99.90
582;DHT22;277;50.074;8.436;2023-07-24T10:27:39;25.30;99.90
582;DHT22;277;50.074;8.436;2023-07-24T10:30:07;25.30;99.90
582;DHT22;277;50.074;8.436;2023-07-24T10:32:46;25.40;99.90
582;DHT22;277;50.074;8.436;2023-07-24T10:35:17;25.40;99.90
582;DHT22;277;50.074;8.436;2023-07-24T10:37:47;25.60;99.90
582;DHT22;277;50.074;8.436;2023-07-24T10:40:19;25.70;99.90
582;DHT22;277;50.074;8.436;2023-07-24T10:42:57;25.80;99.90
582;DHT22;277;50.074;8.436;2023-07-24T10:45:25;25.80;99.90
582;DHT22;277;50.074;8.436;2023-07-24T10:47:54;25.80;99.90
582;DHT22;277;50.074;8.436;2023-07-24T10:50:22;25.90;99.90
582;DHT22;277;50.074;8.436;2023-07-24T10:52:50;25.90;99.90
582;DHT22;277;50.074;8.436;2023-07-24T10:55:18;25.90;99.90
582;DHT22;277;50.074;8.436;2023-07-24T10:57:46;26.10;99.90
582;DHT22;277;50.074;8.436;2023-07-24T11:00:14;26.20;99.90
582;DHT22;277;50.074;8.436;2023-07-24T11:02:41;26.20;99.90
582;DHT22;277;50.074;8.436;2023-07-24T11:05:11;26.20;99.90
582;DHT22;277;50.074;8.436;2023-07-24T11:07:39;26.10;99.90
582;DHT22;277;50.074;8.436;2023-07-24T11:10:14;26.10;99.90
582;DHT22;277;50.074;8.436;2023-07-24T11:12:47;26.00;99.90
582;DHT22;277;50.074;8.436;2023-07-24T11:15:15;25.80;99.90
582;DHT22;277;50.074;8.436;2023-07-24T11:17:42;25.70;99.90
582;DHT22;277;50.074;8.436;2023-07-24T11:20:12;25.70;99.90
582;DHT22;277;50.074;8.436;2023-07-24T11:22:40;25.60;99.90
582;DHT22;277;50.074;8.436;2023-07-24T11:25:09;25.50;99.90
582;DHT22;277;50.074;8.436;2023-07-24T11:27:38;25.40;99.90
582;DHT22;277;50.074;8.436;2023-07-24T11:30:06;25.30;99.90
582;DHT22;277;50.074;8.436;2023-07-24T11:32:34;25.40;99.90
582;DHT22;277;50.074;8.436;2023-07-24T11:35:02;25.60;99.90
582;DHT22;277;50.074;8.436;2023-07-24T11:37:31;25.70;99.90
582;DHT22;277;50.074;8.436;2023-07-24T11:40:00;25.80;99.90
582;DHT22;277;50.074;8.436;2023-07-24T11:42:31;25.80;99.90
582;DHT22;277;50.074;8.436;2023-07-24T11:45:00;25.80;99.90
582;DHT22;277;50.074;8.436;2023-07-24T11:47:28;25.90;99.90
582;DHT22;277;50.074;8.436;2023-07-24T11:49:57;26.00;99.90
582;DHT22;277;50.074;8.436;2023-07-24T11:52:25;26.10;99.90
582;DHT22;277;50.074;8.436;2023-07-24T11:54:57;26.10;99.90
582;DHT22;277;50.074;8.436;2023-07-24T11:57:27;26.40;99.90
582;DHT22;277;50.074;8.436;2023-07-24T11:59:55;26.70;99.90
582;DHT22;277;50.074;8.436;2023-07-24T12:02:27;26.70;99.90
582;DHT22;277;50.074;8.436;2023-07-24T12:04:55;26.60;99.90
582;DHT22;277;50.074;8.436;2023-07-24T12:07:29;26.30;99.90
582;DHT22;277;50.074;8.436;2023-07-24T12:09:59;26.00;99.90
582;DHT22;277;50.074;8.436;2023-07-24T12:12:36;26.00;99.90
582;DHT22;277;50.074;8.436;2023-07-24T12:15:04;26.20;99.90
582;DHT22;277;50.074;8.436;2023-07-24T12:17:32;26.70;99.90
582;DHT22;277;50.074;8.436;2023-07-24T12:20:00;27.50;99.90
582;DHT22;277;50.074;8.436;2023-07-24T12:22:28;27.80;99.90
582;DHT22;277;50.074;8.436;2023-07-24T12:24:57;27.90;99.90
582;DHT22;277;50.074;8.436;2023-07-24T12:27:26;28.10;99.90
582;DHT22;277;50.074;8.436;2023-07-24T12:29:53;28.40;99.90
582;DHT22;277;50.074;8.436;2023-07-24T12:32:21;28.60;99.90
582;DHT22;277;50.074;8.436;2023-07-24T12:34:50;28.50;99.10
582;DHT22;277;50.074;8.436;2023-07-24T12:37:18;28.40;99.90
582;DHT22;277;50.074;8.436;2023-07-24T12:39:46;28.40;99.60
582;DHT22;277;50.074;8.436;2023-07-24T12:42:14;28.30;99.70
582;DHT22;277;50.074;8.436;2023-07-24T12:44:43;28.00;99.80
582;DHT22;277;50.074;8.436;2023-07-24T12:47:12;28.00;99.90
582;DHT22;277;50.074;8.436;2023-07-24T12:49:39;28.10;99.80
582;DHT22;277;50.074;8.436;2023-07-24T12:52:07;27.80;99.90
582;DHT22;277;50.074;8.436;2023-07-24T12:54:35;27.40;99.90
582;DHT22;277;50.074;8.436;2023-07-24T12:57:23;27.00;99.90
582;DHT22;277;50.074;8.436;2023-07-24T12:59:54;26.90;99.90
582;DHT22;277;50.074;8.436;2023-07-24T13:02:21;26.60;99.90
582;DHT22;277;50.074;8.436;2023-07-24T13:04:49;26.30;99.90
582;DHT22;277;50.074;8.436;2023-07-24T13:07:17;26.30;99.90
582;DHT22;277;50.074;8.436;2023-07-24T13:09:45;26.20;99.90
582;DHT22;277;50.074;8.436;2023-07-24T13:12:12;26.50;99.90
582;DHT22;277;50.074;8.436;2023-07-24T13:14:40;27.30;99.90
582;DHT22;277;50.074;8.436;2023-07-24T13:17:10;28.00;99.90
582;DHT22;277;50.074;8.436;2023-07-24T13:19:38;28.50;99.90
582;DHT22;277;50.074;8.436;2023-07-24T13:22:05;28.90;99.50
582;DHT22;277;50.074;8.436;2023-07-24T13:24:33;28.90;98.80
582;DHT22;277;50.074;8.436;2023-07-24T13:27:01;29.20;99.00
582;DHT22;277;50.074;8.436;2023-07-24T13:29:29;29.40;98.40
582;DHT22;277;50.074;8.436;2023-07-24T13:31:57;28.70;98.50
582;DHT22;277;50.074;8.436;2023-07-24T13:34:26;28.70;99.20
582;DHT22;277;50.074;8.436;2023-07-24T13:36:54;29.00;99.10
582;DHT22;277;50.074;8.436;2023-07-24T13:39:21;28.90;99.00
582;DHT22;277;50.074;8.436;2023-07-24T13:41:49;28.70;99.30
582;DHT22;277;50.074;8.436;2023-07-24T13:44:17;28.40;99.70
582;DHT22;277;50.074;8.436;2023-07-24T13:46:44;28.00;99.90
582;DHT22;277;50.074;8.436;2023-07-24T13:49:12;27.40;99.90
582;DHT22;277;50.074;8.436;2023-07-24T13:51:41;26.80;99.90
582;DHT22;277;50.074;8.436;2023-07-24T13:54:09;26.30;99.90
582;DHT22;277;50.074;8.436;2023-07-24T13:56:37;26.40;99.90
582;DHT22;277;50.074;8.436;2023-07-24T13:59:05;26.30;99.90
582;DHT22;277;50.074;8.436;2023-07-24T14:01:33;26.40;99.90
582;DHT22;277;50.074;8.436;2023-07-24T14:04:01;26.80;99.90
582;DHT22;277;50.074;8.436;2023-07-24T14:06:29;27.10;99.90
582;DHT22;277;50.074;8.436;2023-07-24T14:08:58;27.70;99.90
582;DHT22;277;50.074;8.436;2023-07-24T14:11:26;27.60;99.90
582;DHT22;277;50.074;8.436;2023-07-24T14:13:56;27.30;99.90
582;DHT22;277;50.074;8.436;2023-07-24T14:16:23;27.50;99.90
582;DHT22;277;50.074;8.436;2023-07-24T14:18:51;27.70;99.90
582;DHT22;277;50.074;8.436;2023-07-24T14:21:19;28.00;99.90
582;DHT22;277;50.074;8.436;2023-07-24T14:23:47;28.10;99.90
582;DHT22;277;50.074;8.436;2023-07-24T14:26:16;28.30;99.90
582;DHT22;277;50.074;8.436;2023-07-24T14:28:44;28.40;99.90
582;DHT22;277;50.074;8.436;2023-07-24T14:31:11;28.30;99.90
582;DHT22;277;50.074;8.436;2023-07-24T14:33:39;27.90;99.90
582;DHT22;277;50.074;8.436;2023-07-24T14:36:07;27.70;99.90
582;DHT22;277;50.074;8.436;2023-07-24T14:38:34;27.30;99.90
582;DHT22;277;50.074;8.436;2023-07-24T14:41:02;26.80;99.90
582;DHT22;277;50.074;8.436;2023-07-24T14:43:31;26.60;99.90
582;DHT22;277;50.074;8.436;2023-07-24T14:45:59;26.40;99.90
582;DHT22;277;50.074;8.436;2023-07-24T14:48:27;26.20;99.90
582;DHT22;277;50.074;8.436;2023-07-24T14:50:57;26.10;99.90
582;DHT22;277;50.074;8.436;2023-07-24T14:53:24;26.00;99.90
582;DHT22;277;50.074;8.436;2023-07-24T14:55:52;25.80;99.90
582;DHT22;277;50.074;8.436;2023-07-24T14:58:20;25.80;99.90
582;DHT22;277;50.074;8.436;2023-07-24T15:00:49;25.70;99.90
582;DHT22;277;50.074;8.436;2023-07-24T15:03:17;25.70;99.90
582;DHT22;277;50.074;8.436;2023-07-24T15:05:45;25.70;99.90
582;DHT22;277;50.074;8.436;2023-07-24T15:08:13;25.80;99.90
582;DHT22;277;50.074;8.436;2023-07-24T15:10:41;25.70;99.90
582;DHT22;277;50.074;8.436;2023-07-24T15:13:09;25.80;99.90
582;DHT22;277;50.074;8.436;2023-07-24T15:15:37;25.80;99.90
582;DHT22;277;50.074;8.436;2023-07-24T15:18:07;25.70;99.90
582;DHT22;277;50.074;8.436;2023-07-24T15:20:35;25.50;99.90
582;DHT22;277;50.074;8.436;2023-07-24T15:23:03;25.30;99.90
582;DHT22;277;50.074;8.436;2023-07-24T15:25:33;25.10;99.90
582;DHT22;277;50.074;8.436;2023-07-24T15:28:01;25.00;99.90
582;DHT22;277;50.074;8.436;2023-07-24T15:30:28;24.80;99.90
582;DHT22;277;50.074;8.436;2023-07-24T15:32:56;24.70;99.90
582;DHT22;277;50.074;8.436;2023-07-24T15:35:25;24.40;99.90
582;DHT22;277;50.074;8.436;2023-07-24T15:37:53;23.70;99.90
582;DHT22;277;50.074;8.436;2023-07-24T15:40:21;23.10;99.90
582;DHT22;277;50.074;8.436;2023-07-24T15:42:49;22.80;99.90
582;DHT22;277;50.074;8.436;2023-07-24T15:45:17;22.80;99.90
582;DHT22;277;50.074;8.436;2023-07-24T15:47:45;22.70;99.90
582;DHT22;277;50.074;8.436;2023-07-24T15:50:13;22.80;99.90
582;DHT22;277;50.074;8.436;2023-07-24T15:52:42;23.10;99.90
582;DHT22;277;50.074;8.436;2023-07-24T15:55:09;23.60;99.90
582;DHT22;277;50.074;8.436;2023-07-24T15:57:37;24.10;99.90
582;DHT22;277;50.074;8.436;2023-07-24T16:00:05;24.60;99.90
582;DHT22;277;50.074;8.436;2023-07-24T16:02:35;24.90;99.90
582;DHT22;277;50.074;8.436;2023-07-24T16:05:03;25.10;99.90
582;DHT22;277;50.074;8.436;2023-07-24T16:07:31;25.20;99.90
582;DHT22;277;50.074;8.436;2023-07-24T16:10:00;25.20;99.90
582;DHT22;277;50.074;8.436;2023-07-24T16:12:28;25.30;99.90
582;DHT22;277;50.074;8.436;2023-07-24T16:14:55;25.20;99.90
582;DHT22;277;50.074;8.436;2023-07-24T16:17:23;25.20;99.90
582;DHT22;277;50.074;8.436;2023-07-24T16:19:51;25.30;99.90
582;DHT22;277;50.074;8.436;2023-07-24T16:22:19;25.30;99.90
582;DHT22;277;50.074;8.436;2023-07-24T16:24:47;25.40;99.90
582;DHT22;277;50.074;8.436;2023-07-24T16:27:16;25.20;99.90
582;DHT22;277;50.074;8.436;2023-07-24T16:29:44;25.10;99.90
582;DHT22;277;50.074;8.436;2023-07-24T16:32:12;24.90;99.90
582;DHT22;277;50.074;8.436;2023-07-24T16:34:40;24.80;99.90
582;DHT22;277;50.074;8.436;2023-07-24T16:37:08;24.70;99.90
582;DHT22;277;50.074;8.436;2023-07-24T16:39:37;24.70;99.90
582;DHT22;277;50.074;8.436;2023-07-24T16:42:05;24.70;99.90
582;DHT22;277;50.074;8.436;2023-07-24T16:44:34;24.70;99.90